Mount Horeb, WI (53572)

2:13 PM CDT on June 25, 2017 (GMT -0500)
Garfoot and Mineral Point | | Change Station

Elev 1155 ft 43.06 °N, 89.70 °W | Updated 1 second ago

Overcast
Overcast
61.8 °F
Feels Like 61.8 °F
N
4.0
Wind Variable Wind from NNW
Gusts 6.0 mph

Today
High -- | Low -- °F
--% Chance of Precip.
Yesterday
High -- | Low -- °F
Precip. -- in
Pressure 30.11 in
Visibility 10.0 miles
Clouds Scattered Clouds 3300 ft
Mostly Cloudy 4400 ft
Overcast 5000 ft
Dew Point 52 °F
Humidity 71%
Rainfall 0.00 in
Snow Depth Not available.
5:21 AM 8:42 PM
Waxing Crescent, 4% visible
METAR KC29 251855Z AUTO 28012G19KT 10SM SCT033 BKN044 OVC050 17/11 A3011 RMK AO1 T01740105
Pressure 30.11 in
Visibility 10.0 miles
Clouds Scattered Clouds 3300 ft
Mostly Cloudy 4400 ft
Overcast 5000 ft
Dew Point 52 °F
Humidity 71%
Rainfall 0.00 in
Snow Depth Not available.
5:21 AM 8:42 PM
Waxing Crescent, 4% visible
METAR KC29 251855Z AUTO 28012G19KT 10SM SCT033 BKN044 OVC050 17/11 A3011 RMK AO1 T01740105

Get Severe Weather Alerts

Thanks for signing up!

Be on the lookout for a verification email in your inbox.

You'll start receiving the daily forecast at 6 AM.

×

10-Day Weather Forecast

Almanac

Astronomy

Jun. 25, 2017 Rise Set
Actual Time
Civil Twilight
Nautical Twilight
Astronomical Twilight
Moon
Length of Visible Light
Length of Day
Tomorrow will be .
, % of the Moon is Illuminated

Today's Extremes

State Highs State Lows

Community

WunderPhotos

Category 6

Welcome to Category 6. This is the collective home for Weather Underground's featured writeups by Dr. Jeff Masters (right), Bob Henson (left), Chris Burt, and other regular contributors.

Nearby

Air Quality

  Air Quality AQ Index Pollutant
Not available.

Snow Depth

Station Depth Elevation

Earthquake Activity

City Distance Mag. Time & Date
Minimum magnitude displayed is 2.5.

Coastal Water Temperatures

Place Temperature

Stations

Nearby Weather Stations

Station Location Temp. Windchill Dew Point Humidity Wind Precip. Elev Updated Type
                   

Watches & Warnings

There are currently no watches in effect.